sensor_id;sensor_type;location;lat;lon;timestamp;temperature;humidity
2907;DHT22;1463;51.070;16.998;2023-08-17T00:01:04;24.00;99.90
2907;DHT22;1463;51.070;16.998;2023-08-17T00:03:32;23.90;99.90
2907;DHT22;1463;51.070;16.998;2023-08-17T00:06:01;24.00;99.90
2907;DHT22;1463;51.070;16.998;2023-08-17T00:08:29;24.20;99.90
2907;DHT22;1463;51.070;16.998;2023-08-17T00:10:57;24.20;99.90
2907;DHT22;1463;51.070;16.998;2023-08-17T00:13:25;24.20;99.90
2907;DHT22;1463;51.070;16.998;2023-08-17T00:15:53;24.20;99.90
2907;DHT22;1463;51.070;16.998;2023-08-17T00:18:20;24.10;99.90
2907;DHT22;1463;51.070;16.998;2023-08-17T00:20:47;24.10;99.90
2907;DHT22;1463;51.070;16.998;2023-08-17T00:23:16;24.00;99.90
2907;DHT22;1463;51.070;16.998;2023-08-17T00:25:44;24.10;99.90
2907;DHT22;1463;51.070;16.998;2023-08-17T00:28:13;24.10;99.90
2907;DHT22;1463;51.070;16.998;2023-08-17T00:30:41;24.20;99.90
2907;DHT22;1463;51.070;16.998;2023-08-17T00:33:09;24.20;99.90
2907;DHT22;1463;51.070;16.998;2023-08-17T00:35:37;24.20;99.90
2907;DHT22;1463;51.070;16.998;2023-08-17T00:38:04;24.20;99.90
2907;DHT22;1463;51.070;16.998;2023-08-17T00:40:34;24.20;99.90
2907;DHT22;1463;51.070;16.998;2023-08-17T00:43:01;23.70;99.90
2907;DHT22;1463;51.070;16.998;2023-08-17T00:45:31;23.60;99.90
2907;DHT22;1463;51.070;16.998;2023-08-17T00:47:59;23.60;99.90
2907;DHT22;1463;51.070;16.998;2023-08-17T00:50:28;23.30;99.90
2907;DHT22;1463;51.070;16.998;2023-08-17T00:52:56;23.40;99.90
2907;DHT22;1463;51.070;16.998;2023-08-17T00:55:24;23.50;99.90
2907;DHT22;1463;51.070;16.998;2023-08-17T00:57:53;23.70;99.90
2907;DHT22;1463;51.070;16.998;2023-08-17T01:00:24;23.70;99.90
2907;DHT22;1463;51.070;16.998;2023-08-17T01:02:53;23.50;99.90
2907;DHT22;1463;51.070;16.998;2023-08-17T01:05:21;23.30;99.90
2907;DHT22;1463;51.070;16.998;2023-08-17T01:07:49;22.60;99.90
2907;DHT22;1463;51.070;16.998;2023-08-17T01:10:17;22.80;99.90
2907;DHT22;1463;51.070;16.998;2023-08-17T01:12:51;22.70;99.90
2907;DHT22;1463;51.070;16.998;2023-08-17T01:15:31;22.30;99.90
2907;DHT22;1463;51.070;16.998;2023-08-17T01:18:07;22.40;99.90
2907;DHT22;1463;51.070;16.998;2023-08-17T01:20:36;22.40;99.90
2907;DHT22;1463;51.070;16.998;2023-08-17T01:23:07;22.40;99.90
2907;DHT22;1463;51.070;16.998;2023-08-17T01:25:34;22.40;99.90
2907;DHT22;1463;51.070;16.998;2023-08-17T01:28:03;22.40;99.90
2907;DHT22;1463;51.070;16.998;2023-08-17T01:30:33;22.50;99.90
2907;DHT22;1463;51.070;16.998;2023-08-17T01:33:07;22.50;99.90
2907;DHT22;1463;51.070;16.998;2023-08-17T01:35:46;22.40;99.90
2907;DHT22;1463;51.070;16.998;2023-08-17T01:38:18;22.30;99.90
2907;DHT22;1463;51.070;16.998;2023-08-17T01:40:48;22.20;99.90
2907;DHT22;1463;51.070;16.998;2023-08-17T01:43:17;22.10;99.90
2907;DHT22;1463;51.070;16.998;2023-08-17T01:45:45;22.00;99.90
2907;DHT22;1463;51.070;16.998;2023-08-17T01:48:12;22.00;99.90
2907;DHT22;1463;51.070;16.998;2023-08-17T01:50:41;22.10;99.90
2907;DHT22;1463;51.070;16.998;2023-08-17T01:53:11;22.30;99.90
2907;DHT22;1463;51.070;16.998;2023-08-17T01:55:41;22.30;99.90
2907;DHT22;1463;51.070;16.998;2023-08-17T01:58:08;22.60;99.90
2907;DHT22;1463;51.070;16.998;2023-08-17T02:00:36;22.70;99.90
2907;DHT22;1463;51.070;16.998;2023-08-17T02:03:04;22.80;99.90
2907;DHT22;1463;51.070;16.998;2023-08-17T02:05:31;22.90;99.90
2907;DHT22;1463;51.070;16.998;2023-08-17T02:07:59;22.90;99.90
2907;DHT22;1463;51.070;16.998;2023-08-17T02:10:26;23.00;99.90
2907;DHT22;1463;51.070;16.998;2023-08-17T02:12:55;22.90;99.90
2907;DHT22;1463;51.070;16.998;2023-08-17T02:15:23;23.00;99.90
2907;DHT22;1463;51.070;16.998;2023-08-17T02:17:50;23.00;99.90
2907;DHT22;1463;51.070;16.998;2023-08-17T02:20:17;23.00;99.90
2907;DHT22;1463;51.070;16.998;2023-08-17T02:22:45;23.00;99.90
2907;DHT22;1463;51.070;16.998;2023-08-17T02:25:13;23.00;99.90
2907;DHT22;1463;51.070;16.998;2023-08-17T02:27:41;23.10;99.90
2907;DHT22;1463;51.070;16.998;2023-08-17T02:30:12;23.00;99.90
2907;DHT22;1463;51.070;16.998;2023-08-17T02:32:40;23.00;99.90
2907;DHT22;1463;51.070;16.998;2023-08-17T02:35:08;22.80;99.90
2907;DHT22;1463;51.070;16.998;2023-08-17T02:37:35;22.60;99.90
2907;DHT22;1463;51.070;16.998;2023-08-17T02:40:03;22.70;99.90
2907;DHT22;1463;51.070;16.998;2023-08-17T02:42:31;22.70;99.90
2907;DHT22;1463;51.070;16.998;2023-08-17T02:44:58;22.80;99.90
2907;DHT22;1463;51.070;16.998;2023-08-17T02:47:28;22.60;99.90
2907;DHT22;1463;51.070;16.998;2023-08-17T02:49:55;22.70;99.90
2907;DHT22;1463;51.070;16.998;2023-08-17T02:52:23;22.80;99.90
2907;DHT22;1463;51.070;16.998;2023-08-17T02:54:50;22.80;99.90
2907;DHT22;1463;51.070;16.998;2023-08-17T02:57:18;22.90;99.90
2907;DHT22;1463;51.070;16.998;2023-08-17T02:59:45;22.90;99.90
2907;DHT22;1463;51.070;16.998;2023-08-17T03:02:12;23.00;99.90
2907;DHT22;1463;51.070;16.998;2023-08-17T03:04:42;23.00;99.90
2907;DHT22;1463;51.070;16.998;2023-08-17T03:07:09;23.00;99.90
2907;DHT22;1463;51.070;16.998;2023-08-17T03:09:36;23.00;99.90
2907;DHT22;1463;51.070;16.998;2023-08-17T03:12:04;23.00;99.90
2907;DHT22;1463;51.070;16.998;2023-08-17T03:14:32;23.00;99.90
2907;DHT22;1463;51.070;16.998;2023-08-17T03:16:59;23.00;99.90
2907;DHT22;1463;51.070;16.998;2023-08-17T03:19:27;22.80;99.90
2907;DHT22;1463;51.070;16.998;2023-08-17T03:21:56;22.70;99.90
2907;DHT22;1463;51.070;16.998;2023-08-17T03:24:28;22.70;99.90
2907;DHT22;1463;51.070;16.998;2023-08-17T03:26:57;22.70;99.90
2907;DHT22;1463;51.070;16.998;2023-08-17T03:29:25;22.80;99.90
2907;DHT22;1463;51.070;16.998;2023-08-17T03:31:53;22.80;99.90
2907;DHT22;1463;51.070;16.998;2023-08-17T03:34:20;22.80;99.90
2907;DHT22;1463;51.070;16.998;2023-08-17T03:36:48;22.70;99.90
2907;DHT22;1463;51.070;16.998;2023-08-17T03:39:17;22.70;99.90
2907;DHT22;1463;51.070;16.998;2023-08-17T03:41:45;22.80;99.90
2907;DHT22;1463;51.070;16.998;2023-08-17T03:44:12;22.70;99.90
2907;DHT22;1463;51.070;16.998;2023-08-17T03:46:41;22.80;99.90
2907;DHT22;1463;51.070;16.998;2023-08-17T03:49:08;22.70;99.90
2907;DHT22;1463;51.070;16.998;2023-08-17T03:51:36;22.70;99.90
2907;DHT22;1463;51.070;16.998;2023-08-17T03:54:04;22.70;99.90
2907;DHT22;1463;51.070;16.998;2023-08-17T03:56:33;22.70;99.90
2907;DHT22;1463;51.070;16.998;2023-08-17T03:59:00;22.80;99.90
2907;DHT22;1463;51.070;16.998;2023-08-17T04:01:28;22.70;99.90
2907;DHT22;1463;51.070;16.998;2023-08-17T04:03:55;22.70;99.90
2907;DHT22;1463;51.070;16.998;2023-08-17T04:06:23;22.70;99.90
2907;DHT22;1463;51.070;16.998;2023-08-17T04:08:50;22.70;99.90
2907;DHT22;1463;51.070;16.998;2023-08-17T04:11:18;22.70;99.90
2907;DHT22;1463;51.070;16.998;2023-08-17T04:13:47;22.50;99.90
2907;DHT22;1463;51.070;16.998;2023-08-17T04:16:14;22.60;99.90
2907;DHT22;1463;51.070;16.998;2023-08-17T04:18:41;22.60;99.90
2907;DHT22;1463;51.070;16.998;2023-08-17T04:21:09;22.60;99.90
2907;DHT22;1463;51.070;16.998;2023-08-17T04:23:36;22.60;99.90
2907;DHT22;1463;51.070;16.998;2023-08-17T04:26:04;22.50;99.90
2907;DHT22;1463;51.070;16.998;2023-08-17T04:28:31;22.50;99.90
2907;DHT22;1463;51.070;16.998;2023-08-17T04:31:00;22.50;99.90
2907;DHT22;1463;51.070;16.998;2023-08-17T04:33:27;22.60;99.90
2907;DHT22;1463;51.070;16.998;2023-08-17T04:35:55;22.60;99.90
2907;DHT22;1463;51.070;16.998;2023-08-17T04:38:22;22.50;99.90
2907;DHT22;1463;51.070;16.998;2023-08-17T04:40:51;22.40;99.90
2907;DHT22;1463;51.070;16.998;2023-08-17T04:43:19;22.30;99.90
2907;DHT22;1463;51.070;16.998;2023-08-17T04:45:46;22.30;99.90
2907;DHT22;1463;51.070;16.998;2023-08-17T04:48:19;22.30;99.90
2907;DHT22;1463;51.070;16.998;2023-08-17T04:50:46;22.30;99.90
2907;DHT22;1463;51.070;16.998;2023-08-17T04:53:13;22.40;99.90
2907;DHT22;1463;51.070;16.998;2023-08-17T04:55:41;22.40;99.90
2907;DHT22;1463;51.070;16.998;2023-08-17T04:58:08;22.40;99.90
2907;DHT22;1463;51.070;16.998;2023-08-17T05:00:37;22.50;99.90
2907;DHT22;1463;51.070;16.998;2023-08-17T05:03:05;22.50;99.90
2907;DHT22;1463;51.070;16.998;2023-08-17T05:05:34;22.50;99.90
2907;DHT22;1463;51.070;16.998;2023-08-17T05:08:01;22.40;99.90
2907;DHT22;1463;51.070;16.998;2023-08-17T05:10:29;22.30;99.90
2907;DHT22;1463;51.070;16.998;2023-08-17T05:12:59;22.40;99.90
2907;DHT22;1463;51.070;16.998;2023-08-17T05:15:29;22.40;99.90
2907;DHT22;1463;51.070;16.998;2023-08-17T05:17:56;22.50;99.90
2907;DHT22;1463;51.070;16.998;2023-08-17T05:20:25;22.60;99.90
2907;DHT22;1463;51.070;16.998;2023-08-17T05:22:54;22.30;99.90
2907;DHT22;1463;51.070;16.998;2023-08-17T05:25:21;22.30;99.90
2907;DHT22;1463;51.070;16.998;2023-08-17T05:27:49;22.40;99.90
2907;DHT22;1463;51.070;16.998;2023-08-17T05:30:16;22.30;99.90
2907;DHT22;1463;51.070;16.998;2023-08-17T05:32:44;22.50;99.90
2907;DHT22;1463;51.070;16.998;2023-08-17T05:35:12;22.60;99.90
2907;DHT22;1463;51.070;16.998;2023-08-17T05:37:42;22.60;99.90
2907;DHT22;1463;51.070;16.998;2023-08-17T05:40:12;22.50;99.90
2907;DHT22;1463;51.070;16.998;2023-08-17T05:42:39;22.50;99.90
2907;DHT22;1463;51.070;16.998;2023-08-17T05:45:11;22.60;99.90
2907;DHT22;1463;51.070;16.998;2023-08-17T05:47:38;22.70;99.90
2907;DHT22;1463;51.070;16.998;2023-08-17T05:50:07;22.70;99.90
2907;DHT22;1463;51.070;16.998;2023-08-17T05:52:34;22.60;99.90
2907;DHT22;1463;51.070;16.998;2023-08-17T05:55:02;22.30;99.90
2907;DHT22;1463;51.070;16.998;2023-08-17T05:57:31;22.00;99.90
2907;DHT22;1463;51.070;16.998;2023-08-17T05:59:58;22.20;99.90
2907;DHT22;1463;51.070;16.998;2023-08-17T06:02:26;22.40;99.90
2907;DHT22;1463;51.070;16.998;2023-08-17T06:04:53;22.50;99.90
2907;DHT22;1463;51.070;16.998;2023-08-17T06:07:21;22.60;99.90
2907;DHT22;1463;51.070;16.998;2023-08-17T06:09:48;22.70;99.90
2907;DHT22;1463;51.070;16.998;2023-08-17T06:12:17;22.70;99.90
2907;DHT22;1463;51.070;16.998;2023-08-17T06:14:46;22.80;99.90
2907;DHT22;1463;51.070;16.998;2023-08-17T06:17:13;22.70;99.90
2907;DHT22;1463;51.070;16.998;2023-08-17T06:19:41;22.80;99.90
2907;DHT22;1463;51.070;16.998;2023-08-17T06:22:08;22.80;99.90
2907;DHT22;1463;51.070;16.998;2023-08-17T06:24:38;22.80;99.90
2907;DHT22;1463;51.070;16.998;2023-08-17T06:27:05;22.80;99.90
2907;DHT22;1463;51.070;16.998;2023-08-17T06:29:33;22.80;99.90
2907;DHT22;1463;51.070;16.998;2023-08-17T06:32:01;22.80;99.90
2907;DHT22;1463;51.070;16.998;2023-08-17T06:34:29;22.90;99.90
2907;DHT22;1463;51.070;16.998;2023-08-17T06:36:57;22.90;99.90
2907;DHT22;1463;51.070;16.998;2023-08-17T06:39:25;22.90;99.90
2907;DHT22;1463;51.070;16.998;2023-08-17T06:41:53;22.90;99.90
2907;DHT22;1463;51.070;16.998;2023-08-17T06:44:20;22.80;99.90
2907;DHT22;1463;51.070;16.998;2023-08-17T06:46:48;22.80;99.90
2907;DHT22;1463;51.070;16.998;2023-08-17T06:49:17;22.90;99.90
2907;DHT22;1463;51.070;16.998;2023-08-17T06:51:44;23.00;99.90
2907;DHT22;1463;51.070;16.998;2023-08-17T06:54:14;22.90;99.90
2907;DHT22;1463;51.070;16.998;2023-08-17T06:56:41;23.00;99.90
2907;DHT22;1463;51.070;16.998;2023-08-17T06:59:09;23.00;99.90
2907;DHT22;1463;51.070;16.998;2023-08-17T07:01:36;23.00;99.90
2907;DHT22;1463;51.070;16.998;2023-08-17T07:04:04;22.90;99.90
2907;DHT22;1463;51.070;16.998;2023-08-17T07:06:34;22.90;99.90
2907;DHT22;1463;51.070;16.998;2023-08-17T07:09:04;22.90;99.90
2907;DHT22;1463;51.070;16.998;2023-08-17T07:11:33;23.00;99.90
2907;DHT22;1463;51.070;16.998;2023-08-17T07:14:00;23.00;99.90
2907;DHT22;1463;51.070;16.998;2023-08-17T07:16:28;22.90;99.90
2907;DHT22;1463;51.070;16.998;2023-08-17T07:18:55;23.00;99.90
2907;DHT22;1463;51.070;16.998;2023-08-17T07:21:23;23.00;99.90
2907;DHT22;1463;51.070;16.998;2023-08-17T07:23:53;23.10;99.90
2907;DHT22;1463;51.070;16.998;2023-08-17T07:26:21;23.00;99.90
2907;DHT22;1463;51.070;16.998;2023-08-17T07:28:49;23.10;99.90
2907;DHT22;1463;51.070;16.998;2023-08-17T07:31:17;23.10;99.90
2907;DHT22;1463;51.070;16.998;2023-08-17T07:33:44;23.20;99.90
2907;DHT22;1463;51.070;16.998;2023-08-17T07:36:11;23.10;99.90
2907;DHT22;1463;51.070;16.998;2023-08-17T07:38:39;23.20;99.90
2907;DHT22;1463;51.070;16.998;2023-08-17T07:41:08;23.20;99.90
2907;DHT22;1463;51.070;16.998;2023-08-17T07:43:35;23.30;99.90
2907;DHT22;1463;51.070;16.998;2023-08-17T07:46:02;23.20;99.90
2907;DHT22;1463;51.070;16.998;2023-08-17T07:48:30;23.20;99.90
2907;DHT22;1463;51.070;16.998;2023-08-17T07:50:59;23.10;99.90
2907;DHT22;1463;51.070;16.998;2023-08-17T07:53:26;23.30;99.90
2907;DHT22;1463;51.070;16.998;2023-08-17T07:55:54;23.30;99.90
2907;DHT22;1463;51.070;16.998;2023-08-17T07:58:23;23.40;99.90
2907;DHT22;1463;51.070;16.998;2023-08-17T08:00:51;23.50;99.90
2907;DHT22;1463;51.070;16.998;2023-08-17T08:03:18;23.60;99.90
2907;DHT22;1463;51.070;16.998;2023-08-17T08:05:46;23.60;99.90
2907;DHT22;1463;51.070;16.998;2023-08-17T08:08:13;23.70;99.90
2907;DHT22;1463;51.070;16.998;2023-08-17T08:10:42;23.80;99.90
2907;DHT22;1463;51.070;16.998;2023-08-17T08:13:09;23.90;99.90
2907;DHT22;1463;51.070;16.998;2023-08-17T08:15:38;24.00;99.90
2907;DHT22;1463;51.070;16.998;2023-08-17T08:18:06;24.00;99.90
2907;DHT22;1463;51.070;16.998;2023-08-17T08:20:34;24.00;99.90
2907;DHT22;1463;51.070;16.998;2023-08-17T08:23:02;24.10;99.90
2907;DHT22;1463;51.070;16.998;2023-08-17T08:25:30;24.10;99.90
2907;DHT22;1463;51.070;16.998;2023-08-17T08:27:57;24.10;99.90
2907;DHT22;1463;51.070;16.998;2023-08-17T08:30:25;24.10;99.90
2907;DHT22;1463;51.070;16.998;2023-08-17T08:32:54;24.20;99.90
2907;DHT22;1463;51.070;16.998;2023-08-17T08:35:23;24.30;99.90
2907;DHT22;1463;51.070;16.998;2023-08-17T08:37:51;24.40;99.90
2907;DHT22;1463;51.070;16.998;2023-08-17T08:40:19;24.40;99.90
2907;DHT22;1463;51.070;16.998;2023-08-17T08:42:53;24.50;99.90
2907;DHT22;1463;51.070;16.998;2023-08-17T08:45:24;24.60;99.90
2907;DHT22;1463;51.070;16.998;2023-08-17T08:47:54;24.60;99.90
2907;DHT22;1463;51.070;16.998;2023-08-17T08:50:22;24.60;99.90
2907;DHT22;1463;51.070;16.998;2023-08-17T08:52:57;24.70;99.90
2907;DHT22;1463;51.070;16.998;2023-08-17T08:55:29;24.70;99.90
2907;DHT22;1463;51.070;16.998;2023-08-17T08:57:57;24.70;99.90
2907;DHT22;1463;51.070;16.998;2023-08-17T09:00:26;24.80;99.90
2907;DHT22;1463;51.070;16.998;2023-08-17T09:02:56;25.00;99.90
2907;DHT22;1463;51.070;16.998;2023-08-17T09:05:24;25.00;99.90
2907;DHT22;1463;51.070;16.998;2023-08-17T09:07:52;25.10;99.90
2907;DHT22;1463;51.070;16.998;2023-08-17T09:10:25;25.20;99.90
2907;DHT22;1463;51.070;16.998;2023-08-17T09:12:52;25.30;99.90
2907;DHT22;1463;51.070;16.998;2023-08-17T09:15:20;25.20;99.90
2907;DHT22;1463;51.070;16.998;2023-08-17T09:17:47;25.20;99.90
2907;DHT22;1463;51.070;16.998;2023-08-17T09:20:37;25.20;99.90
2907;DHT22;1463;51.070;16.998;2023-08-17T09:23:10;25.20;99.90
2907;DHT22;1463;51.070;16.998;2023-08-17T09:25:40;25.40;99.90
2907;DHT22;1463;51.070;16.998;2023-08-17T09:28:08;25.40;99.90
2907;DHT22;1463;51.070;16.998;2023-08-17T09:30:50;25.40;99.90
2907;DHT22;1463;51.070;16.998;2023-08-17T09:33:19;25.50;99.90
2907;DHT22;1463;51.070;16.998;2023-08-17T09:35:48;25.60;99.90
2907;DHT22;1463;51.070;16.998;2023-08-17T09:38:16;25.50;99.90
2907;DHT22;1463;51.070;16.998;2023-08-17T09:40:43;25.70;99.90
2907;DHT22;1463;51.070;16.998;2023-08-17T09:43:11;25.60;99.90
2907;DHT22;1463;51.070;16.998;2023-08-17T09:45:39;25.70;99.90
2907;DHT22;1463;51.070;16.998;2023-08-17T09:48:10;25.80;99.90
2907;DHT22;1463;51.070;16.998;2023-08-17T09:50:38;25.80;99.90
2907;DHT22;1463;51.070;16.998;2023-08-17T09:53:07;25.80;99.90
2907;DHT22;1463;51.070;16.998;2023-08-17T09:55:34;25.80;99.90
2907;DHT22;1463;51.070;16.998;2023-08-17T09:58:03;26.10;99.90
2907;DHT22;1463;51.070;16.998;2023-08-17T10:00:31;26.10;99.90
2907;DHT22;1463;51.070;16.998;2023-08-17T10:03:02;26.20;99.90
2907;DHT22;1463;51.070;16.998;2023-08-17T10:05:31;26.10;99.90
2907;DHT22;1463;51.070;16.998;2023-08-17T10:08:03;26.30;99.90
2907;DHT22;1463;51.070;16.998;2023-08-17T10:10:35;26.50;99.90
2907;DHT22;1463;51.070;16.998;2023-08-17T10:13:09;26.60;99.90
2907;DHT22;1463;51.070;16.998;2023-08-17T10:15:40;26.70;99.90
2907;DHT22;1463;51.070;16.998;2023-08-17T10:18:15;26.70;99.90
2907;DHT22;1463;51.070;16.998;2023-08-17T10:20:52;26.50;99.90
2907;DHT22;1463;51.070;16.998;2023-08-17T10:23:24;26.80;99.90
2907;DHT22;1463;51.070;16.998;2023-08-17T10:25:53;26.80;99.90
2907;DHT22;1463;51.070;16.998;2023-08-17T10:28:22;26.80;99.90
2907;DHT22;1463;51.070;16.998;2023-08-17T10:30:51;26.90;99.90
2907;DHT22;1463;51.070;16.998;2023-08-17T10:33:19;26.90;99.90
2907;DHT22;1463;51.070;16.998;2023-08-17T10:35:47;26.80;99.90
2907;DHT22;1463;51.070;16.998;2023-08-17T10:38:16;26.70;99.90
2907;DHT22;1463;51.070;16.998;2023-08-17T10:40:46;27.00;99.90
2907;DHT22;1463;51.070;16.998;2023-08-17T10:43:19;27.20;99.90
2907;DHT22;1463;51.070;16.998;2023-08-17T10:45:54;27.00;99.90
2907;DHT22;1463;51.070;16.998;2023-08-17T10:48:30;26.90;99.90
2907;DHT22;1463;51.070;16.998;2023-08-17T10:51:05;26.90;99.90
2907;DHT22;1463;51.070;16.998;2023-08-17T10:53:36;27.20;99.90
2907;DHT22;1463;51.070;16.998;2023-08-17T10:56:11;27.20;99.90
2907;DHT22;1463;51.070;16.998;2023-08-17T10:58:42;27.30;99.90
2907;DHT22;1463;51.070;16.998;2023-08-17T11:01:09;27.40;99.90
2907;DHT22;1463;51.070;16.998;2023-08-17T11:03:37;27.40;99.90
2907;DHT22;1463;51.070;16.998;2023-08-17T11:06:16;27.50;99.90
2907;DHT22;1463;51.070;16.998;2023-08-17T11:08:54;27.50;99.90
2907;DHT22;1463;51.070;16.998;2023-08-17T11:11:23;27.50;99.90
2907;DHT22;1463;51.070;16.998;2023-08-17T11:13:53;27.50;99.90
2907;DHT22;1463;51.070;16.998;2023-08-17T11:16:24;27.30;99.90
2907;DHT22;1463;51.070;16.998;2023-08-17T11:18:52;27.50;99.90
2907;DHT22;1463;51.070;16.998;2023-08-17T11:21:21;27.50;99.90
2907;DHT22;1463;51.070;16.998;2023-08-17T11:23:50;27.60;99.90
2907;DHT22;1463;51.070;16.998;2023-08-17T11:26:18;27.70;99.90
2907;DHT22;1463;51.070;16.998;2023-08-17T11:28:47;27.70;99.90
2907;DHT22;1463;51.070;16.998;2023-08-17T11:31:16;27.70;99.90
2907;DHT22;1463;51.070;16.998;2023-08-17T11:33:44;27.60;99.90
2907;DHT22;1463;51.070;16.998;2023-08-17T11:36:13;27.60;99.90
2907;DHT22;1463;51.070;16.998;2023-08-17T11:38:42;27.60;99.90
2907;DHT22;1463;51.070;16.998;2023-08-17T11:41:11;27.80;99.90
2907;DHT22;1463;51.070;16.998;2023-08-17T11:43:39;28.00;99.90
2907;DHT22;1463;51.070;16.998;2023-08-17T11:46:07;28.00;99.90
2907;DHT22;1463;51.070;16.998;2023-08-17T11:48:37;28.10;99.90
2907;DHT22;1463;51.070;16.998;2023-08-17T11:51:04;28.00;99.90
2907;DHT22;1463;51.070;16.998;2023-08-17T11:53:35;28.10;99.90
2907;DHT22;1463;51.070;16.998;2023-08-17T11:56:04;28.10;99.90
2907;DHT22;1463;51.070;16.998;2023-08-17T11:58:42;28.10;99.90
2907;DHT22;1463;51.070;16.998;2023-08-17T12:01:11;28.00;99.90
2907;DHT22;1463;51.070;16.998;2023-08-17T12:03:43;28.20;99.90
2907;DHT22;1463;51.070;16.998;2023-08-17T12:06:11;28.20;99.90
2907;DHT22;1463;51.070;16.998;2023-08-17T12:08:42;28.20;99.90
2907;DHT22;1463;51.070;16.998;2023-08-17T12:11:09;28.30;99.90
2907;DHT22;1463;51.070;16.998;2023-08-17T12:13:37;28.30;99.90
2907;DHT22;1463;51.070;16.998;2023-08-17T12:16:05;28.40;99.90
2907;DHT22;1463;51.070;16.998;2023-08-17T12:18:33;28.30;99.90
2907;DHT22;1463;51.070;16.998;2023-08-17T12:21:04;28.40;99.90
2907;DHT22;1463;51.070;16.998;2023-08-17T12:23:32;28.50;99.90
2907;DHT22;1463;51.070;16.998;2023-08-17T12:26:00;28.30;99.90
2907;DHT22;1463;51.070;16.998;2023-08-17T12:28:28;28.50;99.90
2907;DHT22;1463;51.070;16.998;2023-08-17T12:30:59;28.50;99.90
2907;DHT22;1463;51.070;16.998;2023-08-17T12:33:28;28.40;99.90
2907;DHT22;1463;51.070;16.998;2023-08-17T12:35:55;28.50;99.90
2907;DHT22;1463;51.070;16.998;2023-08-17T12:38:25;28.50;99.90
2907;DHT22;1463;51.070;16.998;2023-08-17T12:41:01;28.50;99.90
2907;DHT22;1463;51.070;16.998;2023-08-17T12:43:29;28.50;99.90
2907;DHT22;1463;51.070;16.998;2023-08-17T12:45:56;28.50;99.90
2907;DHT22;1463;51.070;16.998;2023-08-17T12:48:24;28.60;99.90
2907;DHT22;1463;51.070;16.998;2023-08-17T12:50:52;28.60;99.90
2907;DHT22;1463;51.070;16.998;2023-08-17T12:53:19;28.50;99.90
2907;DHT22;1463;51.070;16.998;2023-08-17T12:55:48;28.50;99.90
2907;DHT22;1463;51.070;16.998;2023-08-17T12:58:16;28.70;99.90
2907;DHT22;1463;51.070;16.998;2023-08-17T13:00:43;28.60;99.90
2907;DHT22;1463;51.070;16.998;2023-08-17T13:03:11;28.50;99.90
2907;DHT22;1463;51.070;16.998;2023-08-17T13:05:38;28.50;99.90
2907;DHT22;1463;51.070;16.998;2023-08-17T13:08:10;28.50;99.90
2907;DHT22;1463;51.070;16.998;2023-08-17T13:10:37;28.50;99.90
2907;DHT22;1463;51.070;16.998;2023-08-17T13:13:06;28.60;99.90
2907;DHT22;1463;51.070;16.998;2023-08-17T13:15:34;28.70;99.90
2907;DHT22;1463;51.070;16.998;2023-08-17T13:18:01;28.70;99.90
2907;DHT22;1463;51.070;16.998;2023-08-17T13:20:29;28.60;99.90
2907;DHT22;1463;51.070;16.998;2023-08-17T13:22:59;28.60;99.90
2907;DHT22;1463;51.070;16.998;2023-08-17T13:25:27;28.50;99.90
2907;DHT22;1463;51.070;16.998;2023-08-17T13:27:54;28.60;99.90
2907;DHT22;1463;51.070;16.998;2023-08-17T13:30:24;28.70;99.90
2907;DHT22;1463;51.070;16.998;2023-08-17T13:32:55;28.60;99.90
2907;DHT22;1463;51.070;16.998;2023-08-17T13:35:23;28.60;99.90
2907;DHT22;1463;51.070;16.998;2023-08-17T13:37:56;28.70;99.90
2907;DHT22;1463;51.070;16.998;2023-08-17T13:40:24;28.70;99.90
2907;DHT22;1463;51.070;16.998;2023-08-17T13:42:52;28.70;99.90
2907;DHT22;1463;51.070;16.998;2023-08-17T13:45:20;28.80;99.90
2907;DHT22;1463;51.070;16.998;2023-08-17T13:47:49;28.70;99.90
2907;DHT22;1463;51.070;16.998;2023-08-17T13:50:16;28.90;99.90
2907;DHT22;1463;51.070;16.998;2023-08-17T13:52:44;28.90;99.90
2907;DHT22;1463;51.070;16.998;2023-08-17T13:55:12;28.90;99.90
2907;DHT22;1463;51.070;16.998;2023-08-17T13:57:40;28.80;99.90
2907;DHT22;1463;51.070;16.998;2023-08-17T14:00:09;28.70;99.90
2907;DHT22;1463;51.070;16.998;2023-08-17T14:02:36;28.70;99.90
2907;DHT22;1463;51.070;16.998;2023-08-17T14:05:06;28.70;99.90
2907;DHT22;1463;51.070;16.998;2023-08-17T14:07:34;28.70;99.90
2907;DHT22;1463;51.070;16.998;2023-08-17T14:10:01;28.70;99.90
2907;DHT22;1463;51.070;16.998;2023-08-17T14:12:29;28.60;99.90
2907;DHT22;1463;51.070;16.998;2023-08-17T14:14:56;28.70;99.90
2907;DHT22;1463;51.070;16.998;2023-08-17T14:17:24;28.80;99.90
2907;DHT22;1463;51.070;16.998;2023-08-17T14:19:52;28.90;99.90
2907;DHT22;1463;51.070;16.998;2023-08-17T14:22:22;28.90;99.90
2907;DHT22;1463;51.070;16.998;2023-08-17T14:24:50;28.90;99.90
2907;DHT22;1463;51.070;16.998;2023-08-17T14:27:17;28.80;99.90
2907;DHT22;1463;51.070;16.998;2023-08-17T14:29:44;28.70;99.90
2907;DHT22;1463;51.070;16.998;2023-08-17T14:32:12;28.70;99.90
2907;DHT22;1463;51.070;16.998;2023-08-17T14:34:39;28.60;99.90
2907;DHT22;1463;51.070;16.998;2023-08-17T14:37:07;28.70;99.90
2907;DHT22;1463;51.070;16.998;2023-08-17T14:39:37;28.60;99.90
2907;DHT22;1463;51.070;16.998;2023-08-17T14:42:05;28.60;99.90
2907;DHT22;1463;51.070;16.998;2023-08-17T14:44:33;28.70;99.90
2907;DHT22;1463;51.070;16.998;2023-08-17T14:47:00;28.70;99.90
2907;DHT22;1463;51.070;16.998;2023-08-17T14:49:28;28.70;99.90
2907;DHT22;1463;51.070;16.998;2023-08-17T14:51:56;28.60;99.90
2907;DHT22;1463;51.070;16.998;2023-08-17T14:54:23;28.70;99.90
2907;DHT22;1463;51.070;16.998;2023-08-17T14:56:53;28.70;99.90
2907;DHT22;1463;51.070;16.998;2023-08-17T14:59:20;28.80;99.90
2907;DHT22;1463;51.070;16.998;2023-08-17T15:01:48;28.70;99.90
2907;DHT22;1463;51.070;16.998;2023-08-17T15:04:16;28.30;99.90
2907;DHT22;1463;51.070;16.998;2023-08-17T15:06:44;28.00;99.90
2907;DHT22;1463;51.070;16.998;2023-08-17T15:09:11;27.80;99.90
2907;DHT22;1463;51.070;16.998;2023-08-17T15:11:39;27.70;99.90
2907;DHT22;1463;51.070;16.998;2023-08-17T15:14:10;27.40;99.90
2907;DHT22;1463;51.070;16.998;2023-08-17T15:16:38;27.40;99.90
2907;DHT22;1463;51.070;16.998;2023-08-17T15:19:05;27.30;99.90
2907;DHT22;1463;51.070;16.998;2023-08-17T15:21:32;27.10;99.90
2907;DHT22;1463;51.070;16.998;2023-08-17T15:24:00;27.10;99.90
2907;DHT22;1463;51.070;16.998;2023-08-17T15:26:28;27.00;99.90
2907;DHT22;1463;51.070;16.998;2023-08-17T15:28:56;26.70;99.90
2907;DHT22;1463;51.070;16.998;2023-08-17T15:31:25;26.70;99.90
2907;DHT22;1463;51.070;16.998;2023-08-17T15:33:53;26.70;99.90
2907;DHT22;1463;51.070;16.998;2023-08-17T15:36:20;26.70;99.90
2907;DHT22;1463;51.070;16.998;2023-08-17T15:38:52;26.60;99.90
2907;DHT22;1463;51.070;16.998;2023-08-17T15:41:20;26.60;99.90
2907;DHT22;1463;51.070;16.998;2023-08-17T15:43:47;26.50;99.90
2907;DHT22;1463;51.070;16.998;2023-08-17T15:46:15;26.50;99.90
2907;DHT22;1463;51.070;16.998;2023-08-17T15:48:44;26.50;99.90
2907;DHT22;1463;51.070;16.998;2023-08-17T15:51:12;26.40;99.90
2907;DHT22;1463;51.070;16.998;2023-08-17T15:53:39;26.40;99.90